sensor_id;sensor_type;location;lat;lon;timestamp;P1;durP1;ratioP1;P2;durP2;ratioP2
10880;SDS011;5493;48.884;8.338;2023-08-01T00:01:16;4.97;;;2.50;;
10880;SDS011;5493;48.884;8.338;2023-08-01T00:03:42;4.80;;;2.90;;
10880;SDS011;5493;48.884;8.338;2023-08-01T00:06:09;3.93;;;2.63;;
10880;SDS011;5493;48.884;8.338;2023-08-01T00:08:35;4.97;;;2.77;;
10880;SDS011;5493;48.884;8.338;2023-08-01T00:11:02;3.90;;;2.60;;
10880;SDS011;5493;48.884;8.338;2023-08-01T00:13:30;5.97;;;2.57;;
10880;SDS011;5493;48.884;8.338;2023-08-01T00:15:56;4.17;;;2.63;;
10880;SDS011;5493;48.884;8.338;2023-08-01T00:18:23;4.10;;;2.57;;
10880;SDS011;5493;48.884;8.338;2023-08-01T00:20:51;3.67;;;2.47;;
10880;SDS011;5493;48.884;8.338;2023-08-01T00:23:18;8.67;;;2.80;;
10880;SDS011;5493;48.884;8.338;2023-08-01T00:25:44;3.50;;;2.40;;
10880;SDS011;5493;48.884;8.338;2023-08-01T00:28:16;5.37;;;2.83;;
10880;SDS011;5493;48.884;8.338;2023-08-01T00:30:44;5.93;;;2.80;;
10880;SDS011;5493;48.884;8.338;2023-08-01T00:33:10;5.27;;;2.97;;
10880;SDS011;5493;48.884;8.338;2023-08-01T00:35:38;4.67;;;2.73;;
10880;SDS011;5493;48.884;8.338;2023-08-01T00:38:04;4.43;;;2.40;;
10880;SDS011;5493;48.884;8.338;2023-08-01T00:40:31;4.30;;;2.30;;
10880;SDS011;5493;48.884;8.338;2023-08-01T00:42:57;6.47;;;2.83;;
10880;SDS011;5493;48.884;8.338;2023-08-01T00:45:24;3.87;;;2.53;;
10880;SDS011;5493;48.884;8.338;2023-08-01T00:47:53;3.83;;;2.83;;
10880;SDS011;5493;48.884;8.338;2023-08-01T00:50:20;4.33;;;2.40;;
10880;SDS011;5493;48.884;8.338;2023-08-01T00:52:47;4.70;;;2.63;;
10880;SDS011;5493;48.884;8.338;2023-08-01T00:55:15;3.20;;;2.20;;
10880;SDS011;5493;48.884;8.338;2023-08-01T00:57:42;4.80;;;2.33;;
10880;SDS011;5493;48.884;8.338;2023-08-01T01:00:09;4.90;;;2.57;;
10880;SDS011;5493;48.884;8.338;2023-08-01T01:02:36;3.43;;;2.40;;
10880;SDS011;5493;48.884;8.338;2023-08-01T01:05:05;3.43;;;2.23;;
10880;SDS011;5493;48.884;8.338;2023-08-01T01:07:32;4.43;;;2.43;;
10880;SDS011;5493;48.884;8.338;2023-08-01T01:09:59;3.67;;;2.60;;
10880;SDS011;5493;48.884;8.338;2023-08-01T01:12:25;3.67;;;2.20;;
10880;SDS011;5493;48.884;8.338;2023-08-01T01:14:52;5.60;;;3.00;;
10880;SDS011;5493;48.884;8.338;2023-08-01T01:17:18;4.50;;;2.50;;
10880;SDS011;5493;48.884;8.338;2023-08-01T01:19:45;3.60;;;2.80;;
10880;SDS011;5493;48.884;8.338;2023-08-01T01:22:13;5.13;;;2.57;;
10880;SDS011;5493;48.884;8.338;2023-08-01T01:24:42;3.83;;;2.20;;
10880;SDS011;5493;48.884;8.338;2023-08-01T01:27:09;4.03;;;2.57;;
10880;SDS011;5493;48.884;8.338;2023-08-01T01:29:36;4.53;;;2.47;;
10880;SDS011;5493;48.884;8.338;2023-08-01T01:32:03;5.87;;;3.13;;
10880;SDS011;5493;48.884;8.338;2023-08-01T01:34:32;7.33;;;2.60;;
10880;SDS011;5493;48.884;8.338;2023-08-01T01:36:58;4.87;;;2.60;;
10880;SDS011;5493;48.884;8.338;2023-08-01T01:39:26;4.13;;;2.50;;
10880;SDS011;5493;48.884;8.338;2023-08-01T01:41:53;5.07;;;2.70;;
10880;SDS011;5493;48.884;8.338;2023-08-01T01:44:19;4.63;;;2.63;;
10880;SDS011;5493;48.884;8.338;2023-08-01T01:46:46;4.63;;;3.10;;
10880;SDS011;5493;48.884;8.338;2023-08-01T01:49:14;4.50;;;2.70;;
10880;SDS011;5493;48.884;8.338;2023-08-01T01:51:41;5.33;;;2.63;;
10880;SDS011;5493;48.884;8.338;2023-08-01T01:54:07;4.23;;;2.60;;
10880;SDS011;5493;48.884;8.338;2023-08-01T01:56:35;4.47;;;2.70;;
10880;SDS011;5493;48.884;8.338;2023-08-01T01:59:01;5.90;;;2.60;;
10880;SDS011;5493;48.884;8.338;2023-08-01T02:01:28;3.80;;;2.70;;
10880;SDS011;5493;48.884;8.338;2023-08-01T02:03:54;3.47;;;2.73;;
10880;SDS011;5493;48.884;8.338;2023-08-01T02:06:21;3.97;;;2.67;;
10880;SDS011;5493;48.884;8.338;2023-08-01T02:08:47;4.20;;;2.70;;
10880;SDS011;5493;48.884;8.338;2023-08-01T02:11:14;4.87;;;2.60;;
10880;SDS011;5493;48.884;8.338;2023-08-01T02:13:42;4.43;;;2.80;;
10880;SDS011;5493;48.884;8.338;2023-08-01T02:16:08;5.87;;;3.10;;
10880;SDS011;5493;48.884;8.338;2023-08-01T02:18:35;5.53;;;3.57;;
10880;SDS011;5493;48.884;8.338;2023-08-01T02:21:02;6.60;;;2.70;;
10880;SDS011;5493;48.884;8.338;2023-08-01T02:23:29;5.03;;;2.67;;
10880;SDS011;5493;48.884;8.338;2023-08-01T02:25:56;3.80;;;2.60;;
10880;SDS011;5493;48.884;8.338;2023-08-01T02:28:22;3.73;;;2.73;;
10880;SDS011;5493;48.884;8.338;2023-08-01T02:30:50;4.63;;;2.77;;
10880;SDS011;5493;48.884;8.338;2023-08-01T02:33:17;4.93;;;3.03;;
10880;SDS011;5493;48.884;8.338;2023-08-01T02:35:43;5.47;;;2.93;;
10880;SDS011;5493;48.884;8.338;2023-08-01T02:38:12;4.37;;;2.63;;
10880;SDS011;5493;48.884;8.338;2023-08-01T02:40:38;2.93;;;2.63;;
10880;SDS011;5493;48.884;8.338;2023-08-01T02:43:05;4.17;;;2.70;;
10880;SDS011;5493;48.884;8.338;2023-08-01T02:45:31;6.17;;;3.13;;
10880;SDS011;5493;48.884;8.338;2023-08-01T02:47:59;4.03;;;2.33;;
10880;SDS011;5493;48.884;8.338;2023-08-01T02:50:26;3.00;;;2.07;;
10880;SDS011;5493;48.884;8.338;2023-08-01T02:52:52;7.47;;;2.77;;
10880;SDS011;5493;48.884;8.338;2023-08-01T02:55:19;4.30;;;2.77;;
10880;SDS011;5493;48.884;8.338;2023-08-01T02:57:45;5.17;;;2.77;;
10880;SDS011;5493;48.884;8.338;2023-08-01T03:00:12;4.23;;;2.67;;
10880;SDS011;5493;48.884;8.338;2023-08-01T03:02:39;4.70;;;2.70;;
10880;SDS011;5493;48.884;8.338;2023-08-01T03:05:07;4.20;;;2.70;;
10880;SDS011;5493;48.884;8.338;2023-08-01T03:07:34;7.13;;;2.60;;
10880;SDS011;5493;48.884;8.338;2023-08-01T03:10:02;4.57;;;2.83;;
10880;SDS011;5493;48.884;8.338;2023-08-01T03:12:28;6.80;;;2.80;;
10880;SDS011;5493;48.884;8.338;2023-08-01T03:14:56;3.67;;;2.27;;
10880;SDS011;5493;48.884;8.338;2023-08-01T03:17:22;3.77;;;2.50;;
10880;SDS011;5493;48.884;8.338;2023-08-01T03:19:49;4.90;;;2.50;;
10880;SDS011;5493;48.884;8.338;2023-08-01T03:22:17;4.70;;;2.90;;
10880;SDS011;5493;48.884;8.338;2023-08-01T03:24:43;2.43;;;1.40;;
10880;SDS011;5493;48.884;8.338;2023-08-01T03:27:10;4.03;;;2.80;;
10880;SDS011;5493;48.884;8.338;2023-08-01T03:29:36;4.27;;;2.37;;
10880;SDS011;5493;48.884;8.338;2023-08-01T03:32:03;3.70;;;2.17;;
10880;SDS011;5493;48.884;8.338;2023-08-01T03:34:30;4.17;;;2.70;;
10880;SDS011;5493;48.884;8.338;2023-08-01T03:36:57;3.90;;;2.37;;
10880;SDS011;5493;48.884;8.338;2023-08-01T03:39:25;4.23;;;2.67;;
10880;SDS011;5493;48.884;8.338;2023-08-01T03:41:51;4.33;;;2.50;;
10880;SDS011;5493;48.884;8.338;2023-08-01T03:44:18;4.73;;;2.57;;
10880;SDS011;5493;48.884;8.338;2023-08-01T03:46:44;4.70;;;2.33;;
10880;SDS011;5493;48.884;8.338;2023-08-01T03:49:12;4.77;;;2.63;;
10880;SDS011;5493;48.884;8.338;2023-08-01T03:51:39;3.90;;;2.13;;
10880;SDS011;5493;48.884;8.338;2023-08-01T03:54:05;5.43;;;2.37;;
10880;SDS011;5493;48.884;8.338;2023-08-01T03:56:33;4.90;;;2.37;;
10880;SDS011;5493;48.884;8.338;2023-08-01T03:59:01;5.33;;;2.40;;
10880;SDS011;5493;48.884;8.338;2023-08-01T04:01:30;4.20;;;2.40;;
10880;SDS011;5493;48.884;8.338;2023-08-01T04:03:57;3.30;;;2.17;;
10880;SDS011;5493;48.884;8.338;2023-08-01T04:06:23;4.73;;;2.13;;
10880;SDS011;5493;48.884;8.338;2023-08-01T04:08:50;4.20;;;2.53;;
10880;SDS011;5493;48.884;8.338;2023-08-01T04:11:17;6.50;;;2.40;;
10880;SDS011;5493;48.884;8.338;2023-08-01T04:13:45;3.80;;;2.33;;
10880;SDS011;5493;48.884;8.338;2023-08-01T04:16:11;3.60;;;2.23;;
10880;SDS011;5493;48.884;8.338;2023-08-01T04:18:38;3.03;;;2.20;;
10880;SDS011;5493;48.884;8.338;2023-08-01T04:21:05;3.50;;;1.90;;
10880;SDS011;5493;48.884;8.338;2023-08-01T04:23:34;3.83;;;2.27;;
10880;SDS011;5493;48.884;8.338;2023-08-01T04:26:00;3.47;;;2.00;;
10880;SDS011;5493;48.884;8.338;2023-08-01T04:28:31;6.10;;;3.20;;
10880;SDS011;5493;48.884;8.338;2023-08-01T04:30:58;3.73;;;2.30;;
10880;SDS011;5493;48.884;8.338;2023-08-01T04:33:25;3.77;;;2.20;;
10880;SDS011;5493;48.884;8.338;2023-08-01T04:35:52;3.60;;;2.57;;
10880;SDS011;5493;48.884;8.338;2023-08-01T04:38:18;4.87;;;2.40;;
10880;SDS011;5493;48.884;8.338;2023-08-01T04:40:45;3.83;;;2.47;;
10880;SDS011;5493;48.884;8.338;2023-08-01T04:43:11;7.20;;;2.33;;
10880;SDS011;5493;48.884;8.338;2023-08-01T04:45:38;4.90;;;2.53;;
10880;SDS011;5493;48.884;8.338;2023-08-01T04:48:06;5.33;;;2.43;;
10880;SDS011;5493;48.884;8.338;2023-08-01T04:50:32;4.23;;;2.33;;
10880;SDS011;5493;48.884;8.338;2023-08-01T04:52:59;6.03;;;2.53;;
10880;SDS011;5493;48.884;8.338;2023-08-01T04:55:25;8.37;;;3.03;;
10880;SDS011;5493;48.884;8.338;2023-08-01T04:57:52;5.00;;;2.37;;
10880;SDS011;5493;48.884;8.338;2023-08-01T05:00:18;6.60;;;2.93;;
10880;SDS011;5493;48.884;8.338;2023-08-01T05:02:45;3.80;;;2.67;;
10880;SDS011;5493;48.884;8.338;2023-08-01T05:05:13;3.50;;;2.60;;
10880;SDS011;5493;48.884;8.338;2023-08-01T05:07:41;4.60;;;2.53;;
10880;SDS011;5493;48.884;8.338;2023-08-01T05:10:07;4.10;;;2.40;;
10880;SDS011;5493;48.884;8.338;2023-08-01T05:12:34;4.40;;;2.53;;
10880;SDS011;5493;48.884;8.338;2023-08-01T05:15:01;5.77;;;2.93;;
10880;SDS011;5493;48.884;8.338;2023-08-01T05:17:28;4.77;;;2.83;;
10880;SDS011;5493;48.884;8.338;2023-08-01T05:19:55;5.07;;;2.87;;
10880;SDS011;5493;48.884;8.338;2023-08-01T05:22:23;3.70;;;2.47;;
10880;SDS011;5493;48.884;8.338;2023-08-01T05:24:49;4.53;;;2.83;;
10880;SDS011;5493;48.884;8.338;2023-08-01T05:27:16;5.57;;;3.10;;
10880;SDS011;5493;48.884;8.338;2023-08-01T05:29:42;6.90;;;2.70;;
10880;SDS011;5493;48.884;8.338;2023-08-01T05:32:09;4.07;;;2.43;;
10880;SDS011;5493;48.884;8.338;2023-08-01T05:34:35;5.20;;;2.70;;
10880;SDS011;5493;48.884;8.338;2023-08-01T05:37:02;4.82;;;2.53;;
10880;SDS011;5493;48.884;8.338;2023-08-01T05:39:30;4.80;;;2.53;;
10880;SDS011;5493;48.884;8.338;2023-08-01T05:41:56;6.17;;;2.20;;
10880;SDS011;5493;48.884;8.338;2023-08-01T05:44:23;5.53;;;2.60;;
10880;SDS011;5493;48.884;8.338;2023-08-01T05:46:50;5.13;;;2.60;;
10880;SDS011;5493;48.884;8.338;2023-08-01T05:49:16;4.37;;;2.70;;
10880;SDS011;5493;48.884;8.338;2023-08-01T05:51:43;3.87;;;2.50;;
10880;SDS011;5493;48.884;8.338;2023-08-01T05:54:09;3.37;;;2.63;;
10880;SDS011;5493;48.884;8.338;2023-08-01T05:56:37;5.20;;;2.67;;
10880;SDS011;5493;48.884;8.338;2023-08-01T05:59:03;5.33;;;2.63;;
10880;SDS011;5493;48.884;8.338;2023-08-01T06:01:30;5.60;;;2.60;;
10880;SDS011;5493;48.884;8.338;2023-08-01T06:03:57;5.17;;;2.60;;
10880;SDS011;5493;48.884;8.338;2023-08-01T06:06:23;3.67;;;2.20;;
10880;SDS011;5493;48.884;8.338;2023-08-01T06:08:50;5.13;;;2.23;;
10880;SDS011;5493;48.884;8.338;2023-08-01T06:11:17;6.43;;;2.67;;
10880;SDS011;5493;48.884;8.338;2023-08-01T06:13:45;3.40;;;2.50;;
10880;SDS011;5493;48.884;8.338;2023-08-01T06:16:11;6.20;;;2.97;;
10880;SDS011;5493;48.884;8.338;2023-08-01T06:18:38;7.10;;;3.10;;
10880;SDS011;5493;48.884;8.338;2023-08-01T06:21:04;5.23;;;2.97;;
10880;SDS011;5493;48.884;8.338;2023-08-01T06:23:31;6.13;;;2.70;;
10880;SDS011;5493;48.884;8.338;2023-08-01T06:25:57;4.53;;;2.97;;
10880;SDS011;5493;48.884;8.338;2023-08-01T06:28:24;4.20;;;2.37;;
10880;SDS011;5493;48.884;8.338;2023-08-01T06:30:52;5.53;;;2.97;;
10880;SDS011;5493;48.884;8.338;2023-08-01T06:33:18;4.50;;;2.90;;
10880;SDS011;5493;48.884;8.338;2023-08-01T06:35:45;5.50;;;2.90;;
10880;SDS011;5493;48.884;8.338;2023-08-01T06:38:12;6.27;;;2.97;;
10880;SDS011;5493;48.884;8.338;2023-08-01T06:40:38;4.83;;;2.20;;
10880;SDS011;5493;48.884;8.338;2023-08-01T06:43:05;7.37;;;3.10;;
10880;SDS011;5493;48.884;8.338;2023-08-01T06:45:31;5.13;;;2.77;;
10880;SDS011;5493;48.884;8.338;2023-08-01T06:47:59;3.20;;;2.47;;
10880;SDS011;5493;48.884;8.338;2023-08-01T06:50:26;4.13;;;2.70;;
10880;SDS011;5493;48.884;8.338;2023-08-01T06:52:52;4.83;;;2.93;;
10880;SDS011;5493;48.884;8.338;2023-08-01T06:55:19;6.50;;;2.97;;
10880;SDS011;5493;48.884;8.338;2023-08-01T06:57:45;7.90;;;3.10;;
10880;SDS011;5493;48.884;8.338;2023-08-01T07:00:12;4.03;;;2.83;;
10880;SDS011;5493;48.884;8.338;2023-08-01T07:02:38;3.60;;;2.60;;
10880;SDS011;5493;48.884;8.338;2023-08-01T07:05:07;5.13;;;2.53;;
10880;SDS011;5493;48.884;8.338;2023-08-01T07:07:33;3.40;;;2.37;;
10880;SDS011;5493;48.884;8.338;2023-08-01T07:10:00;4.47;;;2.37;;
10880;SDS011;5493;48.884;8.338;2023-08-01T07:12:26;4.80;;;2.50;;
10880;SDS011;5493;48.884;8.338;2023-08-01T07:14:53;4.53;;;2.23;;
10880;SDS011;5493;48.884;8.338;2023-08-01T07:17:19;2.97;;;2.30;;
10880;SDS011;5493;48.884;8.338;2023-08-01T07:19:46;3.17;;;2.30;;
10880;SDS011;5493;48.884;8.338;2023-08-01T07:22:14;3.87;;;2.10;;
10880;SDS011;5493;48.884;8.338;2023-08-01T07:24:40;3.63;;;1.70;;
10880;SDS011;5493;48.884;8.338;2023-08-01T07:27:07;3.40;;;2.20;;
10880;SDS011;5493;48.884;8.338;2023-08-01T07:29:33;3.57;;;2.07;;
10880;SDS011;5493;48.884;8.338;2023-08-01T07:32:00;4.43;;;1.60;;
10880;SDS011;5493;48.884;8.338;2023-08-01T07:34:26;3.67;;;1.80;;
10880;SDS011;5493;48.884;8.338;2023-08-01T07:36:53;2.13;;;1.90;;
10880;SDS011;5493;48.884;8.338;2023-08-01T07:39:20;2.10;;;1.23;;
10880;SDS011;5493;48.884;8.338;2023-08-01T07:41:47;2.80;;;1.50;;
10880;SDS011;5493;48.884;8.338;2023-08-01T07:44:13;3.63;;;1.60;;
10880;SDS011;5493;48.884;8.338;2023-08-01T07:46:40;2.27;;;1.53;;
10880;SDS011;5493;48.884;8.338;2023-08-01T07:49:06;2.20;;;1.50;;
10880;SDS011;5493;48.884;8.338;2023-08-01T07:51:33;2.10;;;1.50;;
10880;SDS011;5493;48.884;8.338;2023-08-01T07:53:59;1.30;;;1.00;;
10880;SDS011;5493;48.884;8.338;2023-08-01T07:56:27;3.10;;;1.27;;
10880;SDS011;5493;48.884;8.338;2023-08-01T07:58:54;1.40;;;1.20;;
10880;SDS011;5493;48.884;8.338;2023-08-01T08:01:20;1.70;;;1.20;;
10880;SDS011;5493;48.884;8.338;2023-08-01T08:03:47;2.13;;;1.50;;
10880;SDS011;5493;48.884;8.338;2023-08-01T08:06:14;2.83;;;1.60;;
10880;SDS011;5493;48.884;8.338;2023-08-01T08:08:40;2.43;;;1.43;;
10880;SDS011;5493;48.884;8.338;2023-08-01T08:11:07;3.30;;;1.43;;
10880;SDS011;5493;48.884;8.338;2023-08-01T08:13:34;2.70;;;1.40;;
10880;SDS011;5493;48.884;8.338;2023-08-01T08:16:01;2.17;;;1.30;;
10880;SDS011;5493;48.884;8.338;2023-08-01T08:18:29;3.70;;;1.40;;
10880;SDS011;5493;48.884;8.338;2023-08-01T08:20:56;2.43;;;1.37;;
10880;SDS011;5493;48.884;8.338;2023-08-01T08:23:22;2.27;;;1.30;;
10880;SDS011;5493;48.884;8.338;2023-08-01T08:25:49;3.00;;;1.27;;
10880;SDS011;5493;48.884;8.338;2023-08-01T08:28:28;2.60;;;1.70;;
10880;SDS011;5493;48.884;8.338;2023-08-01T08:30:57;2.30;;;1.60;;
10880;SDS011;5493;48.884;8.338;2023-08-01T08:33:24;0.67;;;0.60;;
10880;SDS011;5493;48.884;8.338;2023-08-01T08:35:50;1.87;;;1.40;;
10880;SDS011;5493;48.884;8.338;2023-08-01T08:38:17;1.43;;;1.30;;
10880;SDS011;5493;48.884;8.338;2023-08-01T08:40:47;1.27;;;0.97;;
10880;SDS011;5493;48.884;8.338;2023-08-01T08:43:21;1.00;;;0.70;;
10880;SDS011;5493;48.884;8.338;2023-08-01T08:45:49;1.80;;;0.80;;
10880;SDS011;5493;48.884;8.338;2023-08-01T08:48:20;1.63;;;1.10;;
10880;SDS011;5493;48.884;8.338;2023-08-01T08:50:48;0.60;;;0.50;;
10880;SDS011;5493;48.884;8.338;2023-08-01T08:53:16;1.57;;;1.10;;
10880;SDS011;5493;48.884;8.338;2023-08-01T08:55:43;1.80;;;1.20;;
10880;SDS011;5493;48.884;8.338;2023-08-01T08:58:10;2.30;;;1.40;;
10880;SDS011;5493;48.884;8.338;2023-08-01T09:00:37;3.73;;;1.60;;
10880;SDS011;5493;48.884;8.338;2023-08-01T09:03:03;1.07;;;0.90;;
10880;SDS011;5493;48.884;8.338;2023-08-01T09:05:33;1.77;;;1.20;;
10880;SDS011;5493;48.884;8.338;2023-08-01T09:08:04;2.20;;;1.30;;
10880;SDS011;5493;48.884;8.338;2023-08-01T09:10:33;8.27;;;3.90;;
10880;SDS011;5493;48.884;8.338;2023-08-01T09:13:00;2.63;;;1.50;;
10880;SDS011;5493;48.884;8.338;2023-08-01T09:15:27;2.63;;;1.70;;
10880;SDS011;5493;48.884;8.338;2023-08-01T09:17:55;2.37;;;1.17;;
10880;SDS011;5493;48.884;8.338;2023-08-01T09:20:25;2.63;;;1.33;;
10880;SDS011;5493;48.884;8.338;2023-08-01T09:22:54;2.43;;;1.67;;
10880;SDS011;5493;48.884;8.338;2023-08-01T09:25:30;1.57;;;1.37;;
10880;SDS011;5493;48.884;8.338;2023-08-01T09:27:57;2.00;;;1.60;;
10880;SDS011;5493;48.884;8.338;2023-08-01T09:30:23;3.13;;;1.60;;
10880;SDS011;5493;48.884;8.338;2023-08-01T09:32:53;5.97;;;3.23;;
10880;SDS011;5493;48.884;8.338;2023-08-01T09:35:19;6.45;;;3.00;;
10880;SDS011;5493;48.884;8.338;2023-08-01T09:37:46;4.25;;;2.47;;
10880;SDS011;5493;48.884;8.338;2023-08-01T09:40:15;2.97;;;1.73;;
10880;SDS011;5493;48.884;8.338;2023-08-01T09:42:42;1.70;;;1.30;;
10880;SDS011;5493;48.884;8.338;2023-08-01T09:45:13;1.90;;;1.33;;
10880;SDS011;5493;48.884;8.338;2023-08-01T09:47:40;2.47;;;1.40;;
10880;SDS011;5493;48.884;8.338;2023-08-01T09:50:08;1.30;;;1.20;;
10880;SDS011;5493;48.884;8.338;2023-08-01T09:52:36;2.33;;;0.90;;
10880;SDS011;5493;48.884;8.338;2023-08-01T09:55:03;0.95;;;0.85;;
10880;SDS011;5493;48.884;8.338;2023-08-01T09:57:31;2.88;;;1.08;;
10880;SDS011;5493;48.884;8.338;2023-08-01T09:59:59;1.17;;;0.82;;
10880;SDS011;5493;48.884;8.338;2023-08-01T10:02:26;0.68;;;0.55;;
10880;SDS011;5493;48.884;8.338;2023-08-01T10:04:58;1.13;;;0.88;;
10880;SDS011;5493;48.884;8.338;2023-08-01T10:07:28;0.60;;;0.60;;
10880;SDS011;5493;48.884;8.338;2023-08-01T10:09:57;0.88;;;0.70;;
10880;SDS011;5493;48.884;8.338;2023-08-01T10:12:25;1.27;;;0.65;;
10880;SDS011;5493;48.884;8.338;2023-08-01T10:14:53;0.90;;;0.75;;
10880;SDS011;5493;48.884;8.338;2023-08-01T10:17:21;1.10;;;0.80;;
10880;SDS011;5493;48.884;8.338;2023-08-01T10:19:49;1.70;;;0.82;;
10880;SDS011;5493;48.884;8.338;2023-08-01T10:22:16;0.80;;;0.77;;
10880;SDS011;5493;48.884;8.338;2023-08-01T10:24:43;1.67;;;1.00;;
10880;SDS011;5493;48.884;8.338;2023-08-01T10:27:12;1.70;;;0.98;;
10880;SDS011;5493;48.884;8.338;2023-08-01T10:29:39;0.70;;;0.70;;
10880;SDS011;5493;48.884;8.338;2023-08-01T10:32:07;0.80;;;0.80;;
10880;SDS011;5493;48.884;8.338;2023-08-01T10:34:34;1.98;;;0.95;;
10880;SDS011;5493;48.884;8.338;2023-08-01T10:37:01;1.33;;;0.75;;
10880;SDS011;5493;48.884;8.338;2023-08-01T10:39:28;1.70;;;0.70;;
10880;SDS011;5493;48.884;8.338;2023-08-01T10:41:58;0.73;;;0.73;;
10880;SDS011;5493;48.884;8.338;2023-08-01T10:44:26;1.30;;;1.10;;
10880;SDS011;5493;48.884;8.338;2023-08-01T10:46:53;1.30;;;0.93;;
10880;SDS011;5493;48.884;8.338;2023-08-01T10:49:33;1.08;;;0.82;;
10880;SDS011;5493;48.884;8.338;2023-08-01T10:52:01;1.83;;;1.20;;
10880;SDS011;5493;48.884;8.338;2023-08-01T10:54:27;0.95;;;0.80;;
10880;SDS011;5493;48.884;8.338;2023-08-01T10:56:55;1.13;;;0.88;;
10880;SDS011;5493;48.884;8.338;2023-08-01T10:59:24;1.25;;;0.90;;
10880;SDS011;5493;48.884;8.338;2023-08-01T11:01:51;1.65;;;0.90;;
10880;SDS011;5493;48.884;8.338;2023-08-01T11:04:20;1.80;;;1.10;;
10880;SDS011;5493;48.884;8.338;2023-08-01T11:06:49;2.25;;;1.17;;
10880;SDS011;5493;48.884;8.338;2023-08-01T11:09:18;1.15;;;1.00;;
10880;SDS011;5493;48.884;8.338;2023-08-01T11:11:47;2.15;;;0.73;;
10880;SDS011;5493;48.884;8.338;2023-08-01T11:14:15;1.83;;;1.10;;
10880;SDS011;5493;48.884;8.338;2023-08-01T11:16:43;1.38;;;0.90;;
10880;SDS011;5493;48.884;8.338;2023-08-01T11:19:19;1.50;;;0.90;;
10880;SDS011;5493;48.884;8.338;2023-08-01T11:21:47;1.70;;;1.10;;
10880;SDS011;5493;48.884;8.338;2023-08-01T11:24:16;2.75;;;1.10;;
10880;SDS011;5493;48.884;8.338;2023-08-01T11:26:43;1.42;;;1.10;;
10880;SDS011;5493;48.884;8.338;2023-08-01T11:29:11;1.45;;;0.90;;
10880;SDS011;5493;48.884;8.338;2023-08-01T11:31:38;1.50;;;1.00;;
10880;SDS011;5493;48.884;8.338;2023-08-01T11:34:06;2.20;;;0.98;;
10880;SDS011;5493;48.884;8.338;2023-08-01T11:36:33;3.22;;;1.20;;
10880;SDS011;5493;48.884;8.338;2023-08-01T11:39:01;0.93;;;0.85;;
10880;SDS011;5493;48.884;8.338;2023-08-01T11:41:28;2.63;;;0.80;;
10880;SDS011;5493;48.884;8.338;2023-08-01T11:43:55;2.97;;;1.20;;
10880;SDS011;5493;48.884;8.338;2023-08-01T11:46:30;1.00;;;0.90;;
10880;SDS011;5493;48.884;8.338;2023-08-01T11:48:57;1.65;;;1.02;;
10880;SDS011;5493;48.884;8.338;2023-08-01T11:51:24;2.25;;;0.98;;
10880;SDS011;5493;48.884;8.338;2023-08-01T11:53:57;1.38;;;1.25;;
10880;SDS011;5493;48.884;8.338;2023-08-01T11:56:26;4.43;;;1.08;;
10880;SDS011;5493;48.884;8.338;2023-08-01T11:58:52;1.75;;;1.10;;
10880;SDS011;5493;48.884;8.338;2023-08-01T12:01:19;4.40;;;0.85;;
10880;SDS011;5493;48.884;8.338;2023-08-01T12:03:46;1.38;;;0.90;;
10880;SDS011;5493;48.884;8.338;2023-08-01T12:06:15;1.83;;;0.82;;
10880;SDS011;5493;48.884;8.338;2023-08-01T12:08:43;1.33;;;1.05;;
10880;SDS011;5493;48.884;8.338;2023-08-01T12:11:20;2.08;;;1.17;;
10880;SDS011;5493;48.884;8.338;2023-08-01T12:13:48;1.52;;;1.20;;
10880;SDS011;5493;48.884;8.338;2023-08-01T12:16:26;2.28;;;0.77;;
10880;SDS011;5493;48.884;8.338;2023-08-01T12:18:53;1.77;;;1.20;;
10880;SDS011;5493;48.884;8.338;2023-08-01T12:21:19;0.77;;;0.60;;
10880;SDS011;5493;48.884;8.338;2023-08-01T12:23:46;1.77;;;0.80;;
10880;SDS011;5493;48.884;8.338;2023-08-01T12:26:12;1.33;;;0.90;;
10880;SDS011;5493;48.884;8.338;2023-08-01T12:28:39;0.93;;;0.82;;
10880;SDS011;5493;48.884;8.338;2023-08-01T12:31:07;3.25;;;1.08;;
10880;SDS011;5493;48.884;8.338;2023-08-01T12:33:33;1.33;;;1.00;;
10880;SDS011;5493;48.884;8.338;2023-08-01T12:36:00;2.08;;;1.02;;
10880;SDS011;5493;48.884;8.338;2023-08-01T12:38:28;2.38;;;0.90;;
10880;SDS011;5493;48.884;8.338;2023-08-01T12:40:54;1.40;;;1.00;;
10880;SDS011;5493;48.884;8.338;2023-08-01T12:43:21;0.77;;;0.70;;
10880;SDS011;5493;48.884;8.338;2023-08-01T12:45:47;1.42;;;0.82;;
10880;SDS011;5493;48.884;8.338;2023-08-01T12:48:15;1.27;;;0.93;;
10880;SDS011;5493;48.884;8.338;2023-08-01T12:50:45;1.70;;;1.10;;
10880;SDS011;5493;48.884;8.338;2023-08-01T12:53:13;2.38;;;1.20;;
10880;SDS011;5493;48.884;8.338;2023-08-01T12:55:42;1.08;;;0.98;;
10880;SDS011;5493;48.884;8.338;2023-08-01T12:58:09;1.30;;;1.00;;
10880;SDS011;5493;48.884;8.338;2023-08-01T13:00:35;3.47;;;1.15;;
10880;SDS011;5493;48.884;8.338;2023-08-01T13:03:02;1.10;;;1.00;;
10880;SDS011;5493;48.884;8.338;2023-08-01T13:05:30;1.88;;;1.17;;
10880;SDS011;5493;48.884;8.338;2023-08-01T13:07:56;1.00;;;0.80;;
10880;SDS011;5493;48.884;8.338;2023-08-01T13:10:23;1.35;;;0.98;;
10880;SDS011;5493;48.884;8.338;2023-08-01T13:12:49;1.95;;;0.88;;
10880;SDS011;5493;48.884;8.338;2023-08-01T13:15:16;1.80;;;1.23;;
10880;SDS011;5493;48.884;8.338;2023-08-01T13:17:43;2.03;;;1.10;;
10880;SDS011;5493;48.884;8.338;2023-08-01T13:20:10;1.20;;;0.90;;
10880;SDS011;5493;48.884;8.338;2023-08-01T13:22:38;1.42;;;0.63;;
10880;SDS011;5493;48.884;8.338;2023-08-01T13:25:04;0.85;;;0.82;;
10880;SDS011;5493;48.884;8.338;2023-08-01T13:27:33;1.25;;;1.00;;
10880;SDS011;5493;48.884;8.338;2023-08-01T13:30:00;2.00;;;1.13;;
10880;SDS011;5493;48.884;8.338;2023-08-01T13:32:27;1.25;;;0.93;;
10880;SDS011;5493;48.884;8.338;2023-08-01T13:34:54;1.30;;;0.80;;
10880;SDS011;5493;48.884;8.338;2023-08-01T13:37:21;1.98;;;1.00;;
10880;SDS011;5493;48.884;8.338;2023-08-01T13:39:49;0.88;;;0.70;;
10880;SDS011;5493;48.884;8.338;2023-08-01T13:42:15;1.85;;;0.90;;
10880;SDS011;5493;48.884;8.338;2023-08-01T13:44:42;0.90;;;0.60;;
10880;SDS011;5493;48.884;8.338;2023-08-01T13:47:08;2.13;;;1.02;;
10880;SDS011;5493;48.884;8.338;2023-08-01T13:49:35;2.50;;;1.17;;
10880;SDS011;5493;48.884;8.338;2023-08-01T13:52:01;1.60;;;1.02;;
10880;SDS011;5493;48.884;8.338;2023-08-01T13:54:29;1.40;;;0.88;;
10880;SDS011;5493;48.884;8.338;2023-08-01T13:56:57;1.10;;;1.00;;
10880;SDS011;5493;48.884;8.338;2023-08-01T13:59:24;1.92;;;1.13;;
10880;SDS011;5493;48.884;8.338;2023-08-01T14:01:50;2.75;;;1.08;;
10880;SDS011;5493;48.884;8.338;2023-08-01T14:04:17;1.67;;;1.00;;
10880;SDS011;5493;48.884;8.338;2023-08-01T14:06:43;1.15;;;0.90;;
10880;SDS011;5493;48.884;8.338;2023-08-01T14:09:10;2.03;;;1.00;;
10880;SDS011;5493;48.884;8.338;2023-08-01T14:11:37;1.95;;;0.82;;
10880;SDS011;5493;48.884;8.338;2023-08-01T14:14:05;1.30;;;0.80;;
10880;SDS011;5493;48.884;8.338;2023-08-01T14:16:32;2.17;;;0.90;;
10880;SDS011;5493;48.884;8.338;2023-08-01T14:18:58;1.05;;;0.80;;
10880;SDS011;5493;48.884;8.338;2023-08-01T14:21:25;2.10;;;1.02;;
10880;SDS011;5493;48.884;8.338;2023-08-01T14:23:51;4.57;;;1.05;;
10880;SDS011;5493;48.884;8.338;2023-08-01T14:26:18;1.02;;;0.57;;
10880;SDS011;5493;48.884;8.338;2023-08-01T14:28:45;1.02;;;0.90;;
10880;SDS011;5493;48.884;8.338;2023-08-01T14:31:14;1.60;;;1.08;;
10880;SDS011;5493;48.884;8.338;2023-08-01T14:33:40;2.20;;;0.90;;
10880;SDS011;5493;48.884;8.338;2023-08-01T14:36:07;1.23;;;1.00;;
10880;SDS011;5493;48.884;8.338;2023-08-01T14:38:37;1.80;;;1.30;;
10880;SDS011;5493;48.884;8.338;2023-08-01T14:41:03;0.77;;;0.68;;
10880;SDS011;5493;48.884;8.338;2023-08-01T14:43:30;1.00;;;0.75;;
10880;SDS011;5493;48.884;8.338;2023-08-01T14:45:57;1.38;;;0.80;;
10880;SDS011;5493;48.884;8.338;2023-08-01T14:48:25;1.40;;;1.02;;
10880;SDS011;5493;48.884;8.338;2023-08-01T14:50:52;1.50;;;0.80;;
10880;SDS011;5493;48.884;8.338;2023-08-01T14:53:18;1.42;;;0.98;;
10880;SDS011;5493;48.884;8.338;2023-08-01T14:55:45;1.50;;;0.88;;
10880;SDS011;5493;48.884;8.338;2023-08-01T14:58:11;3.08;;;1.63;;
10880;SDS011;5493;48.884;8.338;2023-08-01T15:00:38;1.88;;;0.80;;